Tiempo atmosférico en la estación meteorológica de Muniesa, Teruel (800 m.)



Fecha
DESCASC
Temp. máxima en grados centígrados (hora)
DESCASC
Temp. mínima en grados centígrados (hora)
DESCASC
Temp. media en grados centígrados
DESCASC
Racha de viento máxima en m/sg (hora)
DESCASC
Velocidad máxima media en intervalos de 10 minutos(hora)
DESCASC
Precipitaciones diarias en mm
DESCASC
Precipitaciones de 00:00 a 06:00 en mm
DESCASC
Precipitaciones de 06:00 a 12:00 en mm
DESCASC
Precipitaciones de 12:00 a 18:00 en mm
DESCASC
Precipitaciones de 18:00 a 24:00 en mm
DESCASC
31-05-2020 26 (15:20) 13 (07:00) 19.5 8.61 (19:10) 5.56 (21:10) 15.2 0 0 1.4 13.8
30-05-2020 26 (16:20) 12.8 (06:50) 19.4 6.94 (17:20) 4.44 (16:40) 0 0 0 0 0
28-05-2020 24.8 (17:00) 9.9 (00:00) 17.3 10.28 (17:00) 4.44 (15:00) 0 0 0 0 0
27-05-2020 24.4 (17:40) 13.2 (06:10) 18.8 8.33 (13:30) 5.56 (14:30) 0 0 0 0 0
26-05-2020 23.1 (16:20) 13.8 (00:00) 18.5 6.11 (13:50) 3.61 (12:10) 0 0 0 0 0
25-05-2020 23.1 (15:20) 14.4 (00:00) 18.8 7.22 (14:50) 4.72 (13:00) 3.6 0 3.6 0 0
24-05-2020 21.9 (19:20) 10 (06:20) 15.9 8.06 (01:00) 5.28 (01:00) 14.8 14.8 0 0 0
23-05-2020 23.6 (15:10) 13.6 (00:00) 18.6 11.11 (01:50) 5.83 (01:50) 0 0 0 0 0
22-05-2020 29.1 (16:20) 15.2 (00:00) 22.2 8.61 (18:30) 5 (18:30) 0 0 0 0 0
21-05-2020 27.1 (16:10) 11.8 (00:00) 19.5 6.11 (18:30) 3.33 (19:00) 0 0 0 0 0
20-05-2020 25.7 (18:50) 9.8 (00:00) 17.8 6.67 (14:10) 3.06 (00:40) 0 0 0 0 0
19-05-2020 24.1 (18:20) 8.4 (07:10) 16.3 8.06 (17:10) 5.28 (10:10) 0 0 0 0 0
18-05-2020 21.7 (18:30) 6.6 (00:00) 14.2 8.89 (10:00) 5.28 (19:00) 0 0 0 0 0
17-05-2020 18.9 (18:40) 7.4 (00:00) 13.1 8.06 (00:20) 4.17 (10:30) 0 0 0 0 0
16-05-2020 13.5 (18:10) 7.4 (00:00) 10.5 11.11 (18:40) 6.94 (18:30) 2.6 1.2 1.4 0 0
15-05-2020 14.2 (14:40) 8.5 (06:30) 11.3 6.94 (22:10) 4.17 (21:40) 18.6 5 0.2 0.6 12.8
14-05-2020 13.4 (17:10) 8.3 (00:00) 10.8 7.5 (21:50) 4.17 (22:10) 18.8 0 3.6 11.2 4
13-05-2020 16.5 (17:20) 7.2 (00:00) 11.8 12.22 (00:20) 6.94 (00:20) 1.2 1.2 0 0 0
12-05-2020 14.3 (15:30) 7.7 (06:10) 11 9.72 (23:30) 5 (23:30) 9.8 0 0 2.8 7
11-05-2020 19.3 (17:50) 9.3 (00:00) 14.3 14.72 (11:50) 9.17 (11:50) 1 0 0 0 1
10-05-2020 16 (02:20) 9.8 (00:00) 12.9 12.78 (20:30) 7.22 (15:00) 6.6 2.4 0.6 3.4 0.2
09-05-2020 22.5 (13:50) 10.3 (15:40) 16.4 13.33 (15:10) 8.33 (15:10) 37 0.6 0.2 36.2 0
08-05-2020 24.4 (17:10) 10.4 (00:00) 17.4 8.61 (16:50) 5 (17:20) 0 0 0 0 0
07-05-2020 25.2 (15:30) 12.1 (00:00) 18.7 9.44 (15:00) 6.39 (19:00) 0 0 0 0 0
06-05-2020 25.4 (17:30) 10.4 (00:00) 17.9 6.39 (19:20) 4.17 (19:20) 0 0 0 0 0
05-05-2020 23.6 (17:00) 13.7 (00:00) 18.7 10.28 (00:10) 6.67 (00:10) 0 0 0 0 0

Gráficas

Temp. máximas Temp. mínimas Temp. medias Precipitaciones Rachas de viento máximas Velocidades máximas media en intervalos de 10 minutos

Datos horarios

Fecha y hora oficial Temperatura (ºC) Velocidad del viento (km/h) Dirección del viento Racha (km/h) Dirección de racha Precipitación (mm) Presión (hPa) Tendencia (hPa) Humedad (%)
2020-06-03 23:00:00 13.7 5 Sur 22 Sur 1.2 -- -- 90
2020-06-03 22:00:00 13.9 7 Sudoeste 21 Oeste 3 -- -- 90
2020-06-03 21:00:00 14.6 18 Noroeste 45 Noroeste 0 -- -- 84
2020-06-03 20:00:00 17.5 23 Noroeste 39 Noroeste 0 -- -- 74
2020-06-03 19:00:00 20.3 25 Noroeste 53 Noroeste 0 -- -- 73
2020-06-03 18:00:00 26.3 18 Oeste 42 Oeste 0 -- -- 36
2020-06-03 17:00:00 27.8 19 Oeste 39 Oeste 0 -- -- 35
2020-06-03 16:00:00 27.2 22 Oeste 38 Oeste 0 -- -- 35
2020-06-03 15:00:00 25.9 15 Oeste 26 Sudoeste 0 -- -- 39
2020-06-03 14:00:00 25.3 13 Sudoeste 28 Oeste 0 -- -- 42
2020-06-03 13:00:00 25.2 16 Oeste 33 Sudoeste 0 -- -- 43
2020-06-03 12:00:00 24 8 Oeste 17 Sur 0 -- -- 57
2020-06-03 11:00:00 22 6 Sudoeste 17 Noroeste 0 -- -- 71
2020-06-03 10:00:00 20.1 0 Calma 10 Norte 0 -- -- 76
2020-06-03 09:00:00 18.4 5 Noroeste 8 Noroeste 0 -- -- 85
2020-06-03 08:00:00 16.1 0 Calma 7 Sur 0 -- -- 89
2020-06-03 07:00:00 14.3 3 Sur 8 Sur 0 -- -- 91
2020-06-03 06:00:00 14 0 Calma 6 Norte 0 -- -- 90
2020-06-03 05:00:00 15.2 4 Nordeste 11 Sur 0 -- -- 84
2020-06-03 04:00:00 15.7 4 Sur 10 Sur 0 -- -- 83
2020-06-03 03:00:00 15.9 8 Sur 10 Sur 0 -- -- 80
2020-06-03 02:00:00 16.2 4 Sur 11 Sur 0 -- -- 82
2020-06-03 01:00:00 16.5 4 Sur 10 Sur 0 -- -- 79
2020-06-03 00:00:00 16.4 5 Sur 10 Sur 0 -- -- 81
2020-06-02 23:00:00 17.4 6 Sur 11 Sur 0 -- -- 76
2020-06-02 22:00:00 19 4 Sur 8 Sudoeste 0 -- -- 74
2020-06-02 21:00:00 19.7 5 Sur 21 Sudoeste 0 -- -- 73
2020-06-02 20:00:00 21 13 Sur 21 Sur 0 -- -- 69
2020-06-02 19:00:00 22.7 5 Sudeste 21 Este 0 -- -- 67
2020-06-02 18:00:00 22.8 13 Sudeste 28 Sudeste 0 -- -- 72
2020-06-02 17:00:00 22.5 5 Nordeste 19 Este 0 -- -- 71
2020-06-02 16:00:00 22.9 10 Este 20 Este 0 -- -- 68
2020-06-02 15:00:00 24.4 11 Nordeste 20 Nordeste 0 -- -- 63
2020-06-02 14:00:00 24.4 6 Norte 14 Norte 0 -- -- 63
2020-06-02 13:00:00 24 5 Norte 13 Norte 0 -- -- 64
2020-06-02 12:00:00 22.8 6 Norte 13 Noroeste 0 -- -- 68
2020-06-02 11:00:00 21.3 6 Norte 15 Norte 0 -- -- 73
2020-06-02 10:00:00 19.6 5 Noroeste 12 Noroeste 0 -- -- 78
2020-06-02 09:00:00 17.3 3 Norte 10 Noroeste 0 -- -- 86
2020-06-02 08:00:00 15.6 4 Noroeste 10 Oeste 0 -- -- 92
2020-06-02 07:00:00 15.7 2 Oeste 9 Este 0 -- -- 91
2020-06-02 06:00:00 16.1 3 Sudeste 11 Sur 0 -- -- 87
2020-06-02 05:00:00 16.7 8 Sur 13 Sur 0 -- -- 89
2020-06-02 04:00:00 16.5 4 Sur 7 Sudoeste 0 -- -- 92
2020-06-02 03:00:00 17.1 3 Noroeste 8 Noroeste 0 -- -- 89
2020-06-02 02:00:00 17.5 4 Sudoeste 10 Noroeste 0 -- -- 87
2020-06-02 01:00:00 17.9 6 Sur 8 Sur 0 -- -- 85
2020-06-02 00:00:00 18.4 3 Sur 10 Este 0 -- -- 84
2020-06-01 23:00:00 19.1 9 Este 12 Este 0 -- -- 81
2020-06-01 22:00:00 20 7 Este 10 Nordeste 0 -- -- 78
2020-06-01 21:00:00 21.6 6 Este 12 Nordeste 0 -- -- 71
2020-06-01 20:00:00 23.4 8 Nordeste 18 Nordeste 0 -- -- 61
2020-06-01 19:00:00 24 8 Nordeste 19 Este 0 -- -- 60
2020-06-01 18:00:00 24.2 12 Este 23 Este 0 -- -- 59
2020-06-01 17:00:00 23.8 7 Nordeste 18 Norte 0 -- -- 59
2020-06-01 16:00:00 22.9 8 Nordeste 20 Nordeste 0 -- -- 63
2020-06-01 15:00:00 24.8 8 Noroeste 22 Oeste 0 -- -- 47
2020-06-01 14:00:00 23.3 5 Nordeste 14 Este 0 -- -- 59
2020-06-01 13:00:00 22.5 5 Oeste 14 Este 0 -- -- 57
2020-06-01 12:00:00 21.5 6 Nordeste 12 Norte 0 -- -- 61
2020-06-01 11:00:00 20.3 4 Sudoeste 15 Sudoeste 0 -- -- 66
2020-06-01 10:00:00 18.4 8 Sudoeste 13 Sudoeste 0 -- -- 71
2020-06-01 09:00:00 15.1 0 Calma 10 Noroeste 0 -- -- 93
2020-06-01 08:00:00 14.1 0 Calma 18 Sudeste 0 -- -- 91
2020-06-01 07:00:00 13.5 10 Sudeste 17 Sudeste 0 -- -- 92
2020-06-01 06:00:00 13.8 9 Sudeste 13 Sudeste 0 -- -- 93
2020-06-01 05:00:00 13.3 5 Sur 10 Noroeste 0 -- -- 97
2020-06-01 04:00:00 13.4 0 Calma 9 Norte 0 -- -- 96
2020-06-01 03:00:00 13.9 3 Sur 8 Sur 0 -- -- 94
2020-06-01 02:00:00 14.4 0 Calma 8 Sudeste 0 -- -- 94
2020-06-01 01:00:00 14.6 2 Sudoeste 12 Norte 0 -- -- 93
2020-06-01 00:00:00 15.4 4 Sudoeste 14 Oeste 0 -- -- 89
2020-05-31 23:00:00 15.3 5 Sudeste 26 Sudeste 1.8 -- -- 89
2020-05-31 22:00:00 15.7 19 Sudeste 31 Sur 4.2 -- -- 84
2020-05-31 21:00:00 15.5 19 Sudeste 31 Sudeste 4.8 -- -- 90
2020-05-31 20:00:00 16.4 13 Sudoeste 31 Noroeste 2 -- -- 91
2020-05-31 19:00:00 18.5 11 Oeste 19 Oeste 1 -- -- 76
2020-05-31 18:00:00 19 8 Oeste 14 Oeste 1.4 -- -- 74
2020-05-31 17:00:00 20.2 8 Oeste 25 Oeste 0 -- -- 72
2020-05-31 16:00:00 24.6 13 Este 24 Este 0 -- -- 50
2020-05-31 15:00:00 25.7 15 Este 23 Este 0 -- -- 49
2020-05-31 14:00:00 25.4 9 Este 19 Este 0 -- -- 50
2020-05-31 13:00:00 24.2 6 Nordeste 17 Este 0 -- -- 50
2020-05-31 12:00:00 22.5 8 Este 15 Este 0 -- -- 57
2020-05-31 11:00:00 20.7 9 Este 15 Este 0 -- -- 68
2020-05-31 10:00:00 17.1 2 Norte 6 Nordeste 0 -- -- 88
2020-05-31 09:00:00 14.2 3 Noroeste 9 Noroeste 0 -- -- 98
2020-05-31 08:00:00 13.2 5 Noroeste 10 Noroeste 0 -- -- 97
2020-05-31 07:00:00 13 4 Noroeste 10 Noroeste 0 -- -- 96
2020-05-31 06:00:00 13.1 3 Noroeste 5 Noroeste 0 -- -- 94
2020-05-31 05:00:00 13.5 0 Calma 8 Noroeste 0 -- -- 93
2020-05-31 04:00:00 15.5 3 Sudoeste 7 Sudeste 0 -- -- 76
2020-05-31 03:00:00 15.8 4 Sur 7 Norte 0 -- -- 83
2020-05-31 02:00:00 16.3 2 Nordeste 4 Nordeste 0 -- -- 83
2020-05-31 01:00:00 17.3 4 Noroeste 11 Sur 0 -- -- 78
2020-05-31 00:00:00 18.2 4 Sur 13 Este 0 -- -- 77
2020-05-30 23:00:00 19.3 9 Este 15 Este 0 -- -- 72
2020-05-30 22:00:00 21 4 Sudeste 15 Este 0 -- -- 68
2020-05-30 21:00:00 22.6 10 Este 19 Este 0 -- -- 61
2020-05-30 20:00:00 24.4 10 Este 24 Este 0 -- -- 48
2020-05-30 19:00:00 25.4 13 Este 25 Nordeste 0 -- -- 46
2020-05-30 18:00:00 25.5 14 Nordeste 25 Nordeste 0 -- -- 46
2020-05-30 17:00:00 25.9 12 Nordeste 24 Este 0 -- -- 46
2020-05-30 16:00:00 25.5 13 Nordeste 23 Este 0 -- -- 47
2020-05-30 15:00:00 24.8 11 Este 22 Este 0 -- -- 49
2020-05-30 14:00:00 23.9 10 Este 20 Este 0 -- -- 50
2020-05-30 13:00:00 23 10 Nordeste 20 Nordeste 0 -- -- 54
2020-05-30 12:00:00 22.2 7 Este 14 Este 0 -- -- 55
2020-05-30 11:00:00 20.5 8 Nordeste 14 Nordeste 0 -- -- 58
2020-05-30 10:00:00 19.2 6 Nordeste 11 Norte 0 -- -- 64
2020-05-30 09:00:00 18 2 Norte 4 Nordeste 0 -- -- 68
2020-05-30 08:00:00 14.6 2 Sur 6 Sur 0 -- -- 81
2020-05-30 07:00:00 12.8 3 Sur 5 Sudoeste 0 -- -- 85
2020-05-30 06:00:00 13.5 4 Norte 9 Oeste 0 -- -- 80
2020-05-30 05:00:00 14.5 2 Norte 13 Sudoeste 0 -- -- 76
2020-05-30 04:00:00 15.3 4 Sudoeste 8 Sudoeste 0 -- -- 71
2020-05-30 03:00:00 15.1 4 Oeste 8 Noroeste 0 -- -- 77
2020-05-30 02:00:00 15.3 5 Noroeste 14 Sudoeste 0 -- -- 75
2020-05-30 01:00:00 16.4 6 Oeste 22 Noroeste 0 -- -- 65
2020-05-30 00:00:00 17.9 6 Sur 9 Sur 0 -- -- 63
2020-05-29 23:00:00 19.4 3 Sur 5 Sur 0 -- -- 61
2020-05-29 22:00:00 21.6 0 Calma 9 Nordeste 0 -- -- 54
2020-05-29 21:00:00 24.1 6 Nordeste 9 Nordeste 0 -- -- 43
2020-05-29 20:00:00 25.7 5 Nordeste 10 Norte 0 -- -- 38
2020-05-29 19:00:00 26.4 5 Norte 19 Norte 0 -- -- 36
2020-05-29 18:00:00 26.3 9 Norte 21 Nordeste 0 -- -- 41
2020-05-29 17:00:00 26.2 12 Norte 22 Norte 0 -- -- 42
2020-05-29 16:00:00 26.7 8 Norte 22 Norte 0 -- -- 41
2020-05-29 15:00:00 25.9 7 Nordeste 21 Norte 0 -- -- 39
2020-05-29 14:00:00 25.5 8 Norte 16 Norte 0 -- -- 41
2020-05-29 13:00:00 25.2 4 Noroeste 15 Norte 0 -- -- 42
2020-05-29 12:00:00 24.2 8 Noroeste 16 Noroeste 0 -- -- 42
2020-05-29 11:00:00 22.9 3 Norte 9 Norte 0 -- -- 49
2020-05-29 10:00:00 21.7 3 Nordeste 6 Nordeste 0 -- -- 52
2020-05-29 09:00:00 18.2 0 Calma 7 Sur 0 -- -- 65
2020-05-29 08:00:00 15.3 5 Sur 9 Sur 0 -- -- 69
2020-05-29 07:00:00 13.5 8 Sur 10 Sur 0 -- -- 71
2020-05-29 06:00:00 13.8 6 Sur 12 Sur 0 -- -- 70
2020-05-29 05:00:00 14.3 9 Sur 12 Sur 0 -- -- 70
2020-05-29 04:00:00 15 9 Sur 16 Sur 0 -- -- 68
2020-05-29 03:00:00 15.5 11 Sur 14 Sur 0 -- -- 68
2020-05-29 02:00:00 16.1 6 Sur 13 Sur 0 -- -- 68
2020-05-29 01:00:00 16.6 9 Sur 12 Sur 0 -- -- 69
2020-05-29 00:00:00 16.4 8 Sur 13 Sur 0 -- -- 76
2020-05-28 23:00:00 18.4 2 Sudoeste 8 Nordeste 0 -- -- 71
2020-05-28 22:00:00 19.8 6 Este 10 Este 0 -- -- 64
2020-05-28 21:00:00 21.8 7 Este 19 Este 0 -- -- 57
2020-05-28 20:00:00 23.5 12 Este 24 Este 0 -- -- 49
2020-05-28 19:00:00 24.4 14 Este 27 Nordeste 0 -- -- 45
2020-05-28 18:00:00 24.7 13 Este 24 Este 0 -- -- 41
2020-05-28 17:00:00 24.8 14 Este 37 Nordeste 0 -- -- 40
2020-05-28 16:00:00 24.4 14 Este 26 Sudeste 0 -- -- 41
2020-05-28 15:00:00 23.7 16 Nordeste 26 Nordeste 0 -- -- 45
2020-05-28 14:00:00 22.9 14 Este 29 Nordeste 0 -- -- 45
2020-05-28 13:00:00 22.2 13 Este 24 Este 0 -- -- 48
2020-05-28 12:00:00 21.3 13 Este 21 Este 0 -- -- 44
2020-05-28 11:00:00 20.2 7 Este 19 Nordeste 0 -- -- 49
2020-05-28 10:00:00 18.6 5 Este 15 Este 0 -- -- 59
2020-05-28 09:00:00 16.3 9 Este 13 Este 0 -- -- 65
2020-05-28 08:00:00 13.1 4 Sur 17 Sur 0 -- -- 74
2020-05-28 07:00:00 10.2 6 Sur 10 Sur 0 -- -- 80
2020-05-28 06:00:00 11.1 3 Sur 12 Sur 0 -- -- 74
2020-05-28 05:00:00 10.9 6 Sur 9 Sur 0 -- -- 76
2020-05-28 04:00:00 11.3 3 Sur 9 Este 0 -- -- 76
2020-05-28 03:00:00 11.4 2 Sur 6 Sur 0 -- -- 78
2020-05-28 02:00:00 12.1 7 Sur 9 Sur 0 -- -- 78
2020-05-28 01:00:00 13.4 3 Sur 13 Este 0 -- -- 74
2020-05-28 00:00:00 14.8 9 Sudeste 14 Sudeste 0 -- -- 67
2020-05-27 23:00:00 15.9 11 Este 14 Este 0 -- -- 62
2020-05-27 22:00:00 17.8 10 Este 19 Este 0 -- -- 56
2020-05-27 21:00:00 20.6 8 Este 25 Este 0 -- -- 51
2020-05-27 20:00:00 22.8 17 Este 27 Sudeste 0 -- -- 47
2020-05-27 19:00:00 23.8 19 Este 29 Sudeste 0 -- -- 47
2020-05-27 18:00:00 23.4 18 Este 28 Este 0 -- -- 51
2020-05-27 17:00:00 23.9 15 Este 29 Este 0 -- -- 51
2020-05-27 16:00:00 23.1 14 Este 27 Este 0 -- -- 56
2020-05-27 15:00:00 23.7 15 Este 29 Este 0 -- -- 57
2020-05-27 14:00:00 23.2 14 Este 30 Este 0 -- -- 55
2020-05-27 13:00:00 21.9 15 Este 27 Este 0 -- -- 57
2020-05-27 12:00:00 21.9 11 Este 21 Este 0 -- -- 57
2020-05-27 11:00:00 20.3 8 Este 14 Nordeste 0 -- -- 63
2020-05-27 10:00:00 18.7 3 Sudeste 8 Noroeste 0 -- -- 69
2020-05-27 09:00:00 17.1 3 Noroeste 5 Noroeste 0 -- -- 77
2020-05-27 08:00:00 14.3 3 Sudoeste 5 Sur 0 -- -- 88
2020-05-27 07:00:00 13.4 2 Sudoeste 3 Oeste 0 -- -- 88
2020-05-27 06:00:00 13.3 3 Oeste 6 Oeste 0 -- -- 89
2020-05-27 05:00:00 13.6 3 Sudoeste 5 Sudoeste 0 -- -- 90
2020-05-27 04:00:00 14 2 Sudoeste 10 Sur 0 -- -- 89
2020-05-27 03:00:00 15 4 Sur 8 Sur 0 -- -- 85
2020-05-27 02:00:00 15.7 5 Sur 9 Sur 0 -- -- 84
2020-05-27 01:00:00 16.8 5 Sur 8 Sur 0 -- -- 80
2020-05-27 00:00:00 16.8 3 Sur 7 Sur 0 -- -- 81
2020-05-26 23:00:00 17.8 4 Sur 5 Sur 0 -- -- 78
2020-05-26 22:00:00 19.3 3 Nordeste 9 Nordeste 0 -- -- 70
2020-05-26 21:00:00 21.1 6 Nordeste 13 Nordeste 0 -- -- 63
2020-05-26 20:00:00 22.2 8 Nordeste 16 Norte 0 -- -- 57
2020-05-26 19:00:00 22.8 7 Nordeste 15 Nordeste 0 -- -- 57
2020-05-26 18:00:00 22.9 8 Este 20 Nordeste 0 -- -- 58
2020-05-26 17:00:00 22.5 8 Nordeste 18 Nordeste 0 -- -- 60
2020-05-26 16:00:00 22.8 9 Este 21 Nordeste 0 -- -- 60
2020-05-26 15:00:00 22 8 Nordeste 21 Este 0 -- -- 59
2020-05-26 14:00:00 21.5 9 Este 22 Este 0 -- -- 60
2020-05-26 13:00:00 20.9 9 Este 21 Nordeste 0 -- -- 59
2020-05-26 12:00:00 20 8 Nordeste 16 Este 0 -- -- 64
2020-05-26 11:00:00 17.9 4 Nordeste 12 Norte 0 -- -- 75
2020-05-26 10:00:00 16.5 5 Noroeste 12 Norte 0 -- -- 81
2020-05-26 09:00:00 15.2 6 Noroeste 11 Noroeste 0 -- -- 84
2020-05-26 08:00:00 13.9 6 Noroeste 12 Noroeste 0 -- -- 88
2020-05-26 07:00:00 13.8 6 Noroeste 12 Noroeste 0 -- -- 89
2020-05-26 06:00:00 14.3 4 Noroeste 6 Oeste 0 -- -- 90
2020-05-26 05:00:00 14.5 4 Oeste 10 Noroeste 0 -- -- 90
2020-05-26 04:00:00 15 7 Noroeste 13 Noroeste 0 -- -- 92
2020-05-26 03:00:00 15.8 0 Calma 5 Noroeste 0 -- -- 94
2020-05-26 02:00:00 15.6 2 Sur 3 Sudoeste 0 -- -- 94
2020-05-26 01:00:00 15.6 0 Calma 5 Sur 0 -- -- 94
2020-05-26 00:00:00 15.7 3 Sur 8 Sur 0 -- -- 93
2020-05-25 23:00:00 16.2 4 Sur 8 Sudoeste 0 -- -- 94
2020-05-25 22:00:00 16.8 0 Calma 5 Oeste 0 -- -- 91
2020-05-25 21:00:00 17.3 2 Norte 10 Sur 0 -- -- 89
2020-05-25 20:00:00 17.4 4 Sudoeste 15 Este 0 -- -- 90
2020-05-25 19:00:00 16.5 10 Este 19 Este 0 -- -- 94
2020-05-25 18:00:00 16.5 10 Este 21 Este 0 -- -- 93
2020-05-25 17:00:00 19 15 Este 24 Este 0 -- -- 85
2020-05-25 16:00:00 22.5 4 Sur 21 Este 0 -- -- 70
2020-05-25 15:00:00 22.2 13 Este 26 Nordeste 0 -- -- 70
2020-05-25 14:00:00 21 13 Este 23 Este 0 -- -- 76
2020-05-25 13:00:00 18.9 17 Este 25 Este 0 -- -- 86
2020-05-25 12:00:00 17.4 14 Este 23 Sudeste 0 -- -- 91
2020-05-25 11:00:00 16.3 6 Nordeste 13 Este 0.2 -- -- 95
2020-05-25 10:00:00 15.3 3 Sur 22 Sudeste 0 -- -- 97
2020-05-25 09:00:00 14.6 10 Sudeste 17 Sudeste 1.8 -- -- 96
2020-05-25 08:00:00 14.9 6 Noroeste 21 Noroeste 1.6 -- -- 95
2020-05-25 07:00:00 15.3 2 Noroeste 5 Sudoeste 0 -- -- 94
2020-05-25 06:00:00 15.3 3 Norte 9 Norte 0 -- -- 94
2020-05-25 05:00:00 15.9 0 Calma 6 Noroeste 0 -- -- 92
2020-05-25 04:00:00 16.3 0 Calma 7 Sudoeste 0 -- -- 91
2020-05-25 03:00:00 16.3 0 Calma 9 Sur 0 -- -- 90
2020-05-25 02:00:00 16.2 6 Sur 8 Sur 0 -- -- 89
2020-05-25 01:00:00 16.5 2 Sudoeste 6 Sudeste 0 -- -- 87
2020-05-25 00:00:00 16.9 2 Sur 6 Este 0 -- -- 87
2020-05-24 23:00:00 17.7 4 Este 6 Nordeste 0 -- -- 84
2020-05-24 22:00:00 18.6 4 Este 6 Este 0 -- -- 81
2020-05-24 21:00:00 20.1 4 Este 13 Este 0 -- -- 77
2020-05-24 20:00:00 21.6 8 Este 13 Este 0 -- -- 69
2020-05-24 19:00:00 21.8 9 Este 16 Este 0 -- -- 66
2020-05-24 18:00:00 21.6 8 Este 17 Nordeste 0 -- -- 67
2020-05-24 17:00:00 21.1 5 Nordeste 13 Este 0 -- -- 70
2020-05-24 16:00:00 20.3 5 Este 12 Nordeste 0 -- -- 65
2020-05-24 15:00:00 19.2 5 Este 14 Este 0 -- -- 70
2020-05-24 14:00:00 18.1 5 Nordeste 12 Sudeste 0 -- -- 75
2020-05-24 13:00:00 16 3 Este 11 Norte 0 -- -- 76
2020-05-24 12:00:00 15.3 4 Nordeste 12 Noroeste 0 -- -- 74
2020-05-24 11:00:00 13.9 8 Norte 16 Noroeste 0 -- -- 79
2020-05-24 10:00:00 13.3 6 Norte 14 Norte 0 -- -- 83
2020-05-24 09:00:00 11.6 9 Noroeste 13 Noroeste 0 -- -- 83
2020-05-24 08:00:00 10.8 3 Noroeste 9 Noroeste 0 -- -- 85
2020-05-24 07:00:00 10.1 5 Oeste 8 Oeste 0 -- -- 91
2020-05-24 06:00:00 10.2 4 Noroeste 11 Noroeste 0 -- -- 91
2020-05-24 05:00:00 10.7 5 Noroeste 12 Noroeste 0 -- -- 90
2020-05-24 04:00:00 11.4 6 Noroeste 17 Noroeste 0 -- -- 89
2020-05-24 03:00:00 11.8 5 Noroeste 14 Oeste 1 -- -- 91
2020-05-24 02:00:00 11.3 6 Noroeste 27 Noroeste 13.8 -- -- 93
2020-05-24 01:00:00 13 19 Noroeste 29 Noroeste 0 -- -- 80
2020-05-24 00:00:00 13.6 11 Noroeste 23 Oeste 0 -- -- 76
2020-05-23 23:00:00 14.4 11 Noroeste 23 Oeste 0 -- -- 74
2020-05-23 22:00:00 15.1 17 Noroeste 33 Noroeste 0 -- -- 74
2020-05-23 21:00:00 17.2 18 Noroeste 31 Noroeste 0 -- -- 69
2020-05-23 20:00:00 20.5 18 Noroeste 28 Noroeste 0 -- -- 62
2020-05-23 19:00:00 22.4 11 Noroeste 23 Norte 0 -- -- 58
2020-05-23 18:00:00 22.6 11 Norte 22 Norte 0 -- -- 58
2020-05-23 17:00:00 23.4 14 Noroeste 26 Noroeste 0 -- -- 57
2020-05-23 16:00:00 22.9 13 Noroeste 29 Noroeste 0 -- -- 61
2020-05-23 15:00:00 23.2 15 Norte 26 Norte 0 -- -- 59
2020-05-23 14:00:00 22.8 16 Noroeste 25 Noroeste 0 -- -- 64
2020-05-23 13:00:00 22 12 Noroeste 23 Norte 0 -- -- 66
2020-05-23 12:00:00 21 10 Norte 20 Norte 0 -- -- 69
2020-05-23 11:00:00 19.4 10 Norte 20 Norte 0 -- -- 72
2020-05-23 10:00:00 18.8 14 Noroeste 21 Noroeste 0 -- -- 75
2020-05-23 09:00:00 17.5 14 Noroeste 22 Noroeste 0 -- -- 79
2020-05-23 08:00:00 16.5 10 Noroeste 14 Noroeste 0 -- -- 84
2020-05-23 07:00:00 16.7 9 Norte 22 Norte 0 -- -- 77
2020-05-23 06:00:00 19.8 5 Noroeste 22 Sudoeste 0 -- -- 51
2020-05-23 05:00:00 20.5 11 Sudoeste 26 Sudoeste 0 -- -- 46
2020-05-23 04:00:00 20.6 16 Sur 29 Sur 0 -- -- 50
2020-05-23 03:00:00 21.3 18 Sur 37 Sudoeste 0 -- -- 50
2020-05-23 02:00:00 22.5 20 Sudoeste 40 Sudoeste 0 -- -- 45
2020-05-23 01:00:00 22.1 12 Sur 29 Sudeste 0 -- -- 49
2020-05-23 00:00:00 22.2 9 Sur 19 Sudeste 0 -- -- 49
2020-05-22 23:00:00 22.3 9 Sudeste 17 Sudeste 0 -- -- 54
2020-05-22 22:00:00 22.6 13 Este 18 Este 0 -- -- 58
2020-05-22 21:00:00 25.1 12 Este 24 Este 0 -- -- 51
2020-05-22 20:00:00 27.2 16 Este 27 Este 0 -- -- 40
2020-05-22 19:00:00 28.2 17 Este 31 Este 0 -- -- 37
2020-05-22 18:00:00 28.8 17 Este 26 Este 0 -- -- 39
2020-05-22 17:00:00 28.9 11 Este 26 Este 0 -- -- 38
2020-05-22 16:00:00 28.9 12 Nordeste 22 Este 0 -- -- 43
2020-05-22 15:00:00 28.3 9 Nordeste 22 Norte 0 -- -- 41
2020-05-22 14:00:00 28.3 9 Nordeste 18 Norte 0 -- -- 49
2020-05-22 13:00:00 27.3 9 Nordeste 15 Nordeste 0 -- -- 41
2020-05-22 12:00:00 26.1 7 Nordeste 15 Este 0 -- -- 48
2020-05-22 11:00:00 25 3 Norte 9 Este 0 -- -- 52
2020-05-22 10:00:00 22.9 2 Noroeste 5 Oeste 0 -- -- 54
2020-05-22 09:00:00 20.5 0 Calma 8 Sur 0 -- -- 63
2020-05-22 08:00:00 17.3 9 Sur 14 Sur 0 -- -- 72
2020-05-22 07:00:00 15.8 10 Sur 13 Sur 0 -- -- 74
2020-05-22 06:00:00 15.8 10 Sur 13 Sur 0 -- -- 75
2020-05-22 05:00:00 15.5 5 Sur 9 Sudoeste 0 -- -- 77
2020-05-22 04:00:00 16.2 4 Sur 8 Sur 0 -- -- 75
2020-05-22 03:00:00 17.8 4 Sur 13 Sudeste 0 -- -- 68
2020-05-22 02:00:00 16.8 7 Sur 12 Sur 0 -- -- 73
2020-05-22 01:00:00 18.2 7 Sur 13 Sur 0 -- -- 67
2020-05-22 00:00:00 18.5 10 Sur 12 Sur 0 -- -- 68
2020-05-21 23:00:00 18.8 5 Sudoeste 9 Sudeste 0 -- -- 69
2020-05-21 22:00:00 21.6 9 Sudeste 12 Sudeste 0 -- -- 57
2020-05-21 21:00:00 24 6 Sudeste 13 Sudeste 0 -- -- 53
2020-05-21 20:00:00 25.8 9 Este 17 Este 0 -- -- 45
2020-05-21 19:00:00 26.4 12 Este 22 Este 0 -- -- 44
2020-05-21 18:00:00 26.8 3 Norte 17 Norte 0 -- -- 44
2020-05-21 17:00:00 26.5 9 Norte 18 Norte 0 -- -- 44
2020-05-21 16:00:00 26.8 8 Norte 18 Nordeste 0 -- -- 45
2020-05-21 15:00:00 26.1 5 Norte 14 Este 0 -- -- 47
2020-05-21 14:00:00 24.5 4 Norte 15 Norte 0 -- -- 50
2020-05-21 13:00:00 23.8 7 Nordeste 18 Nordeste 0 -- -- 50
2020-05-21 12:00:00 22.1 6 Nordeste 14 Nordeste 0 -- -- 52
2020-05-21 11:00:00 20.5 4 Norte 12 Norte 0 -- -- 54
2020-05-21 10:00:00 19.3 7 Noroeste 14 Noroeste 0 -- -- 56
2020-05-21 09:00:00 17.1 3 Oeste 6 Oeste 0 -- -- 63
2020-05-21 08:00:00 13.7 3 Sur 7 Sur 0 -- -- 80
2020-05-21 07:00:00 11.8 5 Sur 9 Sur 0 -- -- 83
2020-05-21 06:00:00 12.3 5 Sur 7 Sur 0 -- -- 82
2020-05-21 05:00:00 13.3 4 Sur 6 Sudoeste 0 -- -- 79
2020-05-21 04:00:00 14.1 3 Sudoeste 6 Sudoeste 0 -- -- 76
2020-05-21 03:00:00 14.2 3 Sudoeste 9 Sur 0 -- -- 73
2020-05-21 02:00:00 14.7 5 Sur 12 Sur 0 -- -- 69
2020-05-21 01:00:00 15.4 9 Sur 12 Sur 0 -- -- 65
2020-05-21 00:00:00 15.5 10 Sur 12 Sur 0 -- -- 68
2020-05-20 23:00:00 16.9 7 Sur 9 Sur 0 -- -- 66
2020-05-20 22:00:00 19.5 4 Sur 5 Sur 0 -- -- 60
2020-05-20 21:00:00 22.8 2 Norte 10 Norte 0 -- -- 51
2020-05-20 20:00:00 24.5 5 Norte 13 Norte 0 -- -- 40
2020-05-20 19:00:00 25.4 9 Norte 17 Norte 0 -- -- 37
2020-05-20 18:00:00 25.5 9 Noroeste 19 Noroeste 0 -- -- 39
2020-05-20 17:00:00 24.9 10 Norte 18 Norte 0 -- -- 42
2020-05-20 16:00:00 24.6 9 Nordeste 17 Nordeste 0 -- -- 40
2020-05-20 15:00:00 24.1 8 Norte 24 Norte 0 -- -- 45
2020-05-20 14:00:00 23.2 7 Norte 15 Noroeste 0 -- -- 49
2020-05-20 13:00:00 22.1 6 Norte 18 Nordeste 0 -- -- 52
2020-05-20 12:00:00 20.8 4 Norte 13 Norte 0 -- -- 56
2020-05-20 11:00:00 19 4 Noroeste 15 Oeste 0 -- -- 58
2020-05-20 10:00:00 17.5 10 Noroeste 17 Oeste 0 -- -- 65
2020-05-20 09:00:00 15.2 4 Noroeste 6 Oeste 0 -- -- 75
2020-05-20 08:00:00 11.6 5 Sur 6 Sur 0 -- -- 86
2020-05-20 07:00:00 9.8 3 Sur 9 Sur 0 -- -- 89
2020-05-20 06:00:00 10.2 4 Sur 6 Sudoeste 0 -- -- 86
2020-05-20 05:00:00 11.1 3 Sudoeste 6 Sudoeste 0 -- -- 83
2020-05-20 04:00:00 10.9 3 Sur 5 Sur 0 -- -- 87
2020-05-20 03:00:00 12 0 Calma 4 Sudeste 0 -- -- 82
2020-05-20 02:00:00 13.4 3 Oeste 10 Noroeste 0 -- -- 78
2020-05-20 01:00:00 14.9 5 Oeste 19 Oeste 0 -- -- 73
2020-05-20 00:00:00 15.7 4 Oeste 10 Oeste 0 -- -- 71
2020-05-19 23:00:00 16.4 5 Oeste 15 Oeste 0 -- -- 71
2020-05-19 22:00:00 17.4 7 Oeste 15 Noroeste 0 -- -- 68
2020-05-19 21:00:00 20.1 8 Noroeste 21 Noroeste 0 -- -- 60
2020-05-19 20:00:00 22.4 14 Noroeste 24 Noroeste 0 -- -- 47
2020-05-19 19:00:00 23.4 15 Noroeste 27 Norte 0 -- -- 45
2020-05-19 18:00:00 23.8 16 Noroeste 29 Norte 0 -- -- 42
2020-05-19 17:00:00 23.6 15 Noroeste 27 Noroeste 0 -- -- 43
2020-05-19 16:00:00 23.2 13 Noroeste 24 Norte 0 -- -- 45
2020-05-19 15:00:00 22.6 15 Noroeste 26 Noroeste 0 -- -- 49
2020-05-19 14:00:00 21.6 14 Noroeste 25 Noroeste 0 -- -- 51
2020-05-19 13:00:00 20.4 12 Noroeste 23 Noroeste 0 -- -- 54
2020-05-19 12:00:00 19.3 12 Noroeste 22 Noroeste 0 -- -- 54
2020-05-19 11:00:00 17.5 14 Noroeste 27 Noroeste 0 -- -- 56
2020-05-19 10:00:00 15.9 18 Noroeste 25 Noroeste 0 -- -- 59
2020-05-19 09:00:00 13.6 12 Noroeste 18 Noroeste 0 -- -- 70
2020-05-19 08:00:00 10.5 4 Oeste 12 Oeste 0 -- -- 81
2020-05-19 07:00:00 8.5 4 Sudoeste 7 Noroeste 0 -- -- 83
2020-05-19 06:00:00 8.7 2 Sudoeste 7 Oeste 0 -- -- 82
2020-05-19 05:00:00 9.5 4 Oeste 8 Noroeste 0 -- -- 80
2020-05-19 04:00:00 10.2 6 Oeste 13 Oeste 0 -- -- 78
2020-05-19 03:00:00 10.7 7 Oeste 20 Oeste 0 -- -- 76
2020-05-19 02:00:00 11.6 11 Noroeste 20 Noroeste 0 -- -- 73
2020-05-19 01:00:00 12.2 8 Noroeste 16 Oeste 0 -- -- 70
2020-05-19 00:00:00 13 8 Oeste 16 Oeste 0 -- -- 72
2020-05-18 23:00:00 14 10 Oeste 16 Oeste 0 -- -- 72
2020-05-18 22:00:00 15.3 6 Oeste 14 Noroeste 0 -- -- 67
2020-05-18 21:00:00 17.7 10 Noroeste 29 Noroeste 0 -- -- 60
2020-05-18 20:00:00 19.8 16 Noroeste 28 Noroeste 0 -- -- 53
2020-05-18 19:00:00 21.3 19 Noroeste 30 Noroeste 0 -- -- 46
2020-05-18 18:00:00 21.5 15 Noroeste 28 Noroeste 0 -- -- 47
2020-05-18 17:00:00 21.5 17 Noroeste 26 Noroeste 0 -- -- 45
2020-05-18 16:00:00 21 12 Noroeste 22 Norte 0 -- -- 46
2020-05-18 15:00:00 20.2 14 Noroeste 24 Norte 0 -- -- 49
2020-05-18 14:00:00 19.1 13 Noroeste 24 Noroeste 0 -- -- 53
2020-05-18 13:00:00 18 12 Noroeste 27 Norte 0 -- -- 55
2020-05-18 12:00:00 17 11 Noroeste 23 Noroeste 0 -- -- 57
2020-05-18 11:00:00 15.1 13 Noroeste 32 Noroeste 0 -- -- 59
2020-05-18 10:00:00 13.7 19 Noroeste 32 Noroeste 0 -- -- 62
2020-05-18 09:00:00 12 5 Oeste 11 Oeste 0 -- -- 69
2020-05-18 08:00:00 8.5 5 Sur 8 Sur 0 -- -- 88
2020-05-18 07:00:00 6.9 2 Sudoeste 9 Sur 0 -- -- 88
2020-05-18 06:00:00 6.7 4 Sur 6 Sudoeste 0 -- -- 90
2020-05-18 05:00:00 6.9 4 Sur 7 Sur 0 -- -- 90
2020-05-18 04:00:00 7.5 3 Sudoeste 7 Sur 0 -- -- 89
2020-05-18 03:00:00 8.1 2 Sur 7 Sur 0 -- -- 88
2020-05-18 02:00:00 9.1 3 Sur 8 Noroeste 0 -- -- 86
2020-05-18 01:00:00 10.7 6 Noroeste 13 Noroeste 0 -- -- 81
2020-05-18 00:00:00 11.6 7 Oeste 18 Oeste 0 -- -- 78
2020-05-17 23:00:00 12.6 9 Oeste 15 Oeste 0 -- -- 74
2020-05-17 22:00:00 13.5 4 Oeste 12 Noroeste 0 -- -- 72
2020-05-17 21:00:00 15.5 6 Noroeste 22 Noroeste 0 -- -- 70
2020-05-17 20:00:00 18.1 11 Noroeste 23 Noroeste 0 -- -- 57
2020-05-17 19:00:00 18.7 12 Noroeste 21 Noroeste 0 -- -- 55
2020-05-17 18:00:00 18.2 11 Norte 21 Norte 0 -- -- 54
2020-05-17 17:00:00 18.2 12 Noroeste 22 Norte 0 -- -- 59
2020-05-17 16:00:00 18 11 Noroeste 24 Noroeste 0 -- -- 58
2020-05-17 15:00:00 17.8 11 Noroeste 21 Noroeste 0 -- -- 59
2020-05-17 14:00:00 16.7 11 Norte 23 Noroeste 0 -- -- 61
2020-05-17 13:00:00 15.5 15 Noroeste 24 Noroeste 0 -- -- 67
2020-05-17 12:00:00 14.4 13 Noroeste 26 Noroeste 0 -- -- 69
2020-05-17 11:00:00 13 14 Noroeste 25 Noroeste 0 -- -- 73
2020-05-17 10:00:00 11.3 13 Noroeste 24 Noroeste 0 -- -- 74
2020-05-17 09:00:00 9.9 13 Noroeste 26 Oeste 0 -- -- 76
2020-05-17 08:00:00 8.5 11 Oeste 21 Oeste 0 -- -- 81
2020-05-17 07:00:00 7.4 8 Oeste 19 Noroeste 0 -- -- 84
2020-05-17 06:00:00 8.2 9 Noroeste 23 Noroeste 0 -- -- 83
2020-05-17 05:00:00 8.2 9 Oeste 19 Oeste 0 -- -- 84
2020-05-17 04:00:00 8.2 9 Oeste 22 Noroeste 0 -- -- 86
2020-05-17 03:00:00 8.4 10 Noroeste 23 Oeste 0 -- -- 85
2020-05-17 02:00:00 8.9 14 Oeste 27 Oeste 0 -- -- 83
2020-05-17 01:00:00 9.2 10 Oeste 29 Noroeste 0 -- -- 83
2020-05-17 00:00:00 9.9 15 Noroeste 28 Noroeste 0 -- -- 81
2020-05-16 23:00:00 10.5 18 Noroeste 39 Noroeste 0 -- -- 81
2020-05-16 22:00:00 11.5 18 Noroeste 33 Noroeste 0 -- -- 80
2020-05-16 21:00:00 12.2 14 Noroeste 35 Noroeste 0 -- -- 81
2020-05-16 20:00:00 13.3 21 Noroeste 36 Noroeste 0 -- -- 79
2020-05-16 19:00:00 13.4 21 Noroeste 40 Noroeste 0 -- -- 80
2020-05-16 18:00:00 13.1 17 Noroeste 28 Noroeste 0 -- -- 82
2020-05-16 17:00:00 12.3 12 Oeste 23 Noroeste 0 -- -- 85
2020-05-16 16:00:00 12.1 14 Noroeste 26 Oeste 0 -- -- 87
2020-05-16 15:00:00 10.9 12 Noroeste 22 Oeste 0 -- -- 91
2020-05-16 14:00:00 10.5 15 Noroeste 23 Noroeste 0 -- -- 90
2020-05-16 13:00:00 10.2 14 Noroeste 22 Noroeste 0 -- -- 92
2020-05-16 12:00:00 9.5 11 Noroeste 21 Noroeste 0 -- -- 94
2020-05-16 11:00:00 9 14 Noroeste 22 Noroeste 0 -- -- 95
2020-05-16 10:00:00 8.5 10 Noroeste 22 Noroeste 0 -- -- 96
2020-05-16 09:00:00 7.9 12 Noroeste 21 Noroeste 0 -- -- 96
2020-05-16 08:00:00 7.6 9 Oeste 19 Noroeste 0 -- -- 97
2020-05-16 07:00:00 7.5 7 Noroeste 13 Noroeste 1.4 -- -- 96
2020-05-16 06:00:00 7.6 8 Noroeste 17 Noroeste 1.2 -- -- 94
2020-05-16 05:00:00 7.7 8 Oeste 15 Oeste 0 -- -- 94
2020-05-16 04:00:00 7.7 10 Noroeste 20 Noroeste 0 -- -- 95
2020-05-16 03:00:00 8 8 Noroeste 21 Noroeste 0 -- -- 96
2020-05-16 02:00:00 8.2 12 Noroeste 21 Noroeste 0 -- -- 97
2020-05-16 01:00:00 8.7 9 Noroeste 21 Noroeste 0 -- -- 97
2020-05-16 00:00:00 9 12 Noroeste 20 Noroeste 0.6 -- -- 97
2020-05-15 23:00:00 9.3 9 Noroeste 25 Noroeste 1.2 -- -- 96
2020-05-15 22:00:00 9.9 14 Noroeste 24 Noroeste 6.4 -- -- 96
2020-05-15 21:00:00 10.6 9 Noroeste 22 Noroeste 2 -- -- 95
2020-05-15 20:00:00 11.2 12 Noroeste 22 Noroeste 1.6 -- -- 95
2020-05-15 19:00:00 11.8 11 Noroeste 19 Noroeste 1 -- -- 92
2020-05-15 18:00:00 12.7 7 Noroeste 12 Noroeste 0.6 -- -- 89
2020-05-15 17:00:00 12.9 8 Norte 14 Norte 0 -- -- 85
2020-05-15 16:00:00 13.9 5 Noroeste 19 Norte 0 -- -- 77
2020-05-15 15:00:00 14.1 9 Norte 21 Noroeste 0 -- -- 77
2020-05-15 14:00:00 12.8 9 Norte 18 Norte 0 -- -- 82
2020-05-15 13:00:00 12.9 10 Noroeste 21 Noroeste 0 -- -- 82
2020-05-15 12:00:00 12.3 12 Noroeste 23 Noroeste 0 -- -- 82
2020-05-15 11:00:00 11.6 10 Noroeste 24 Noroeste 0 -- -- 87
2020-05-15 10:00:00 10 7 Noroeste 17 Noroeste 0 -- -- 93
2020-05-15 09:00:00 9.2 10 Noroeste 16 Noroeste 0 -- -- 96
2020-05-15 08:00:00 8.7 5 Oeste 17 Noroeste 0 -- -- 97
2020-05-15 07:00:00 8.5 8 Noroeste 21 Noroeste 0.2 -- -- 97
2020-05-15 06:00:00 8.7 10 Noroeste 22 Noroeste 0.4 -- -- 97
2020-05-15 05:00:00 9 10 Noroeste 20 Noroeste 0.6 -- -- 96
2020-05-15 04:00:00 9.3 7 Noroeste 12 Noroeste 0.4 -- -- 97
2020-05-15 03:00:00 9.3 5 Noroeste 10 Noroeste 1 -- -- 96
2020-05-15 02:00:00 9.4 7 Noroeste 15 Oeste 1.6 -- -- 94
2020-05-15 01:00:00 9.6 11 Oeste 22 Sudoeste 1 -- -- 91
2020-05-15 00:00:00 9.8 6 Oeste 22 Oeste 0.6 -- -- 92
2020-05-14 23:00:00 9.9 13 Oeste 25 Oeste 0.4 -- -- 92
2020-05-14 22:00:00 10.1 15 Oeste 27 Oeste 0.6 -- -- 90
2020-05-14 21:00:00 10.7 7 Oeste 14 Oeste 1 -- -- 93
2020-05-14 20:00:00 11.1 7 Oeste 20 Oeste 1 -- -- 91
2020-05-14 19:00:00 11.6 6 Noroeste 25 Oeste 0.4 -- -- 86
2020-05-14 18:00:00 12.9 8 Oeste 22 Oeste 0 -- -- 76
2020-05-14 17:00:00 13.2 13 Oeste 23 Oeste 0 -- -- 74
2020-05-14 16:00:00 12.1 9 Sudoeste 16 Sudoeste 0 -- -- 81
2020-05-14 15:00:00 10.8 8 Sur 14 Sudoeste 1.2 -- -- 90
2020-05-14 14:00:00 10.1 5 Sudeste 22 Este 5.8 -- -- 92
2020-05-14 13:00:00 11.1 4 Norte 8 Noroeste 4.2 -- -- 92
2020-05-14 12:00:00 11.3 5 Norte 12 Noroeste 3.6 -- -- 94
2020-05-14 11:00:00 12 7 Noroeste 13 Noroeste 0 -- -- 90
2020-05-14 10:00:00 11.6 4 Noroeste 8 Norte 0 -- -- 93
2020-05-14 09:00:00 10.8 3 Norte 6 Sudoeste 0 -- -- 93
2020-05-14 08:00:00 9.9 3 Sur 5 Sur 0 -- -- 94
2020-05-14 07:00:00 9.2 2 Sur 8 Sur 0 -- -- 94
2020-05-14 06:00:00 8.3 5 Sur 8 Sur 0 -- -- 93
2020-05-14 05:00:00 8.9 3 Sur 9 Sur 0 -- -- 93
2020-05-14 04:00:00 8.9 3 Sur 8 Sur 0 -- -- 92
2020-05-14 03:00:00 9.1 0 Calma 6 Sur 0 -- -- 92
2020-05-14 02:00:00 9.7 0 Calma 6 Norte 0 -- -- 91
2020-05-14 01:00:00 10.7 4 Sudeste 10 Sudeste 0 -- -- 89
2020-05-14 00:00:00 11.5 8 Sudeste 11 Sudeste 0 -- -- 86
2020-05-13 23:00:00 12.8 4 Sur 12 Este 0 -- -- 84
2020-05-13 22:00:00 13.3 6 Este 10 Nordeste 0 -- -- 83
2020-05-13 21:00:00 14.9 3 Sudeste 9 Nordeste 0 -- -- 74
2020-05-13 20:00:00 16.1 3 Nordeste 8 Norte 0 -- -- 65
2020-05-13 19:00:00 16 3 Norte 13 Norte 0 -- -- 64
2020-05-13 18:00:00 15.8 8 Norte 18 Noroeste 0 -- -- 65
2020-05-13 17:00:00 15.9 7 Noroeste 17 Oeste 0 -- -- 65
2020-05-13 16:00:00 15.6 6 Oeste 23 Oeste 0 -- -- 62
2020-05-13 15:00:00 15.9 11 Sudoeste 22 Noroeste 0 -- -- 59
2020-05-13 14:00:00 15.3 15 Oeste 24 Oeste 0 -- -- 60
2020-05-13 13:00:00 14.8 14 Oeste 31 Oeste 0 -- -- 63
2020-05-13 12:00:00 13.6 17 Oeste 30 Oeste 0 -- -- 66
2020-05-13 11:00:00 13.5 15 Oeste 27 Oeste 0 -- -- 70
2020-05-13 10:00:00 12.3 13 Sudoeste 23 Sudoeste 0 -- -- 71
2020-05-13 09:00:00 11.5 15 Oeste 26 Sudoeste 0 -- -- 76
2020-05-13 08:00:00 10 5 Sudoeste 27 Oeste 0 -- -- 79
2020-05-13 07:00:00 9 8 Sudoeste 18 Sudoeste 0 -- -- 81
2020-05-13 06:00:00 7.3 6 Este 11 Este 0 -- -- 88
2020-05-13 05:00:00 8.2 3 Sur 14 Noroeste 0 -- -- 84
2020-05-13 04:00:00 9 12 Sudoeste 27 Sur 0 -- -- 82
2020-05-13 03:00:00 9.4 21 Sudoeste 39 Sudoeste 0 -- -- 83
2020-05-13 02:00:00 8.9 4 Norte 18 Sur 0 -- -- 90
2020-05-13 01:00:00 9.4 9 Sur 44 Sur 1.2 -- -- 89
2020-05-13 00:00:00 10.2 17 Sudoeste 35 Sur 2 -- -- 87
2020-05-12 23:00:00 11.8 13 Este 18 Este 0.4 -- -- 97
2020-05-12 22:00:00 11.9 6 Este 10 Este 0 -- -- 96
2020-05-12 21:00:00 11.6 2 Norte 5 Norte 0 -- -- 95
2020-05-12 20:00:00 11.8 3 Noroeste 6 Oeste 0.2 -- -- 95
2020-05-12 19:00:00 11.7 4 Oeste 15 Nordeste 4.4 -- -- 95
2020-05-12 18:00:00 12.2 10 Nordeste 17 Nordeste 2 -- -- 90
2020-05-12 17:00:00 14 11 Nordeste 17 Nordeste 0 -- -- 79
2020-05-12 16:00:00 14.3 7 Este 18 Este 0 -- -- 83
2020-05-12 15:00:00 13.1 13 Este 19 Este 0.6 -- -- 90
2020-05-12 14:00:00 12.8 0 Calma 11 Este 0.2 -- -- 84
2020-05-12 13:00:00 12.8 7 Este 20 Este 0 -- -- 84
2020-05-12 12:00:00 12.7 14 Este 22 Este 0 -- -- 84
2020-05-12 11:00:00 12.3 14 Este 20 Este 0 -- -- 86
2020-05-12 10:00:00 11.8 12 Este 15 Este 0 -- -- 88
2020-05-12 09:00:00 11 3 Este 5 Este 0 -- -- 93
2020-05-12 08:00:00 8.6 0 Calma 6 Sur 0 -- -- 95
2020-05-12 07:00:00 7.9 0 Calma 11 Sur 0 -- -- 95
2020-05-12 06:00:00 7.8 5 Sur 8 Sur 0 -- -- 94
2020-05-12 05:00:00 8.2 3 Sur 6 Noroeste 0 -- -- 93
2020-05-12 04:00:00 9 6 Noroeste 8 Norte 0 -- -- 92
2020-05-12 03:00:00 9.1 3 Oeste 7 Sur 0 -- -- 90
2020-05-12 02:00:00 10.2 4 Sur 9 Oeste 0 -- -- 87
2020-05-12 01:00:00 10.5 3 Noroeste 10 Sudoeste 0 -- -- 87
2020-05-12 00:00:00 11.5 5 Oeste 9 Oeste 0 -- -- 83
2020-05-11 23:00:00 12.5 5 Oeste 16 Oeste 0 -- -- 81
2020-05-11 22:00:00 12.6 10 Oeste 19 Oeste 0 -- -- 79
2020-05-11 21:00:00 13.7 11 Oeste 28 Sudoeste 0.2 -- -- 78
2020-05-11 20:00:00 13.1 17 Oeste 43 Sudoeste 0.8 -- -- 81
2020-05-11 19:00:00 17.8 15 Noroeste 30 Noroeste 0 -- -- 57
2020-05-11 18:00:00 19.2 14 Noroeste 25 Noroeste 0 -- -- 49
2020-05-11 17:00:00 18.3 14 Oeste 28 Noroeste 0 -- -- 51
2020-05-11 16:00:00 18.2 18 Oeste 41 Oeste 0 -- -- 49
2020-05-11 15:00:00 18.6 25 Oeste 44 Sudoeste 0 -- -- 45
2020-05-11 14:00:00 18.1 27 Oeste 44 Oeste 0 -- -- 44
2020-05-11 13:00:00 17.4 25 Oeste 52 Oeste 0 -- -- 53
2020-05-11 12:00:00 16.5 28 Oeste 53 Oeste 0 -- -- 53
2020-05-11 11:00:00 15.4 26 Oeste 48 Oeste 0 -- -- 58
2020-05-11 10:00:00 14.3 22 Oeste 39 Oeste 0 -- -- 62
2020-05-11 09:00:00 13 23 Oeste 43 Oeste 0 -- -- 68
2020-05-11 08:00:00 11.6 15 Oeste 29 Sudoeste 0 -- -- 74
2020-05-11 07:00:00 10.8 20 Oeste 39 Sudoeste 0 -- -- 75
2020-05-11 06:00:00 11.2 9 Oeste 26 Oeste 0 -- -- 75
2020-05-11 05:00:00 10.9 10 Oeste 18 Oeste 0 -- -- 76
2020-05-11 04:00:00 11.2 9 Oeste 24 Oeste 0 -- -- 76
2020-05-11 03:00:00 11.7 14 Oeste 26 Oeste 0 -- -- 75
2020-05-11 02:00:00 11.7 15 Oeste 26 Oeste 0 -- -- 77
2020-05-11 01:00:00 9.5 0 Calma 9 Sur 0 -- -- 94
2020-05-11 00:00:00 9.8 3 Sudoeste 6 Oeste 0 -- -- 91
2020-05-10 23:00:00 10.2 2 Oeste 10 Oeste 0 -- -- 90
2020-05-10 22:00:00 10.8 6 Oeste 22 Norte 0 -- -- 89
2020-05-10 21:00:00 12.7 12 Noroeste 46 Oeste 0 -- -- 79
2020-05-10 20:00:00 14.7 19 Oeste 33 Sudoeste 0.2 -- -- 65
2020-05-10 19:00:00 13.8 7 Sudoeste 13 Oeste 0 -- -- 76
2020-05-10 18:00:00 11.5 9 Noroeste 20 Noroeste 0.2 -- -- 87
2020-05-10 17:00:00 10.6 18 Noroeste 34 Norte 1.8 -- -- 92
2020-05-10 16:00:00 13.1 18 Norte 28 Norte 0 -- -- 85
2020-05-10 15:00:00 14.8 26 Oeste 39 Oeste 0 -- -- 67
2020-05-10 14:00:00 13.7 19 Oeste 30 Sudoeste 1 -- -- 80
2020-05-10 13:00:00 12.2 16 Oeste 28 Sudoeste 0.4 -- -- 82
2020-05-10 12:00:00 13.4 6 Norte 12 Oeste 0 -- -- 82
2020-05-10 11:00:00 12.6 6 Este 20 Oeste 0.4 -- -- 84
2020-05-10 10:00:00 12.5 6 Oeste 15 Oeste 0 -- -- 82
2020-05-10 09:00:00 12.1 6 Sudoeste 14 Este 0 -- -- 88
2020-05-10 08:00:00 12.3 4 Sudeste 9 Este 0 -- -- 94
2020-05-10 07:00:00 12.3 3 Este 10 Sudeste 0.2 -- -- 92
2020-05-10 06:00:00 12.8 3 Sur 21 Oeste 1.6 -- -- 91
2020-05-10 05:00:00 13.6 13 Sudeste 19 Sudeste 0.6 -- -- 95
2020-05-10 04:00:00 13.7 0 Calma 15 Noroeste 0.2 -- -- 88
2020-05-10 03:00:00 15.6 10 Sur 28 Sudoeste 0 -- -- 76
2020-05-10 02:00:00 15.8 17 Sudoeste 32 Sudoeste 0 -- -- 71
2020-05-10 01:00:00 14.6 9 Sudeste 25 Sudeste 0 -- -- 76
2020-05-10 00:00:00 13.6 0 Calma 9 Sudoeste 0 -- -- 95
2020-05-09 23:00:00 14.3 2 Oeste 3 Noroeste 0 -- -- 92
2020-05-09 22:00:00 15.4 0 Calma 6 Sudeste 0 -- -- 90
2020-05-09 21:00:00 16.5 4 Sudeste 6 Sudeste 0 -- -- 86
2020-05-09 20:00:00 17.1 5 Este 12 Nordeste 0 -- -- 82
2020-05-09 19:00:00 17.5 8 Nordeste 14 Nordeste 0 -- -- 74
2020-05-09 18:00:00 16.9 6 Nordeste 23 Este 0 -- -- 77
2020-05-09 17:00:00 16.6 13 Nordeste 21 Este 2.4 -- -- 79
2020-05-09 16:00:00 13 14 Nordeste 48 Noroeste 33.8 -- -- 90
2020-05-09 15:00:00 18.4 22 Norte 46 Noroeste 0 -- -- 68
2020-05-09 14:00:00 22.4 16 Este 24 Este 0 -- -- 49
2020-05-09 13:00:00 21 8 Este 16 Este 0 -- -- 59
2020-05-09 12:00:00 19.2 8 Este 13 Este 0 -- -- 70
2020-05-09 11:00:00 18 4 Sudeste 10 Este 0 -- -- 75
2020-05-09 10:00:00 15.2 4 Oeste 11 Norte 0 -- -- 85
2020-05-09 09:00:00 13.1 9 Norte 14 Norte 0 -- -- 91
2020-05-09 08:00:00 12.9 6 Noroeste 12 Nordeste 0.2 -- -- 90
2020-05-09 07:00:00 13 7 Nordeste 23 Oeste 0 -- -- 87
2020-05-09 06:00:00 12.4 4 Oeste 20 Norte 0.6 -- -- 90
2020-05-09 05:00:00 11.6 4 Sur 14 Noroeste 0 -- -- 90
2020-05-09 04:00:00 11.7 3 Oeste 10 Noroeste 0 -- -- 88
2020-05-09 03:00:00 12.4 0 Calma 5 Sudoeste 0 -- -- 84
2020-05-09 02:00:00 13 3 Norte 10 Sudeste 0 -- -- 80
2020-05-09 01:00:00 15.4 2 Sur 10 Sur 0 -- -- 66
2020-05-09 00:00:00 16 3 Sudeste 9 Nordeste 0 -- -- 65
2020-05-08 23:00:00 16.2 3 Nordeste 9 Sudoeste 0 -- -- 73
2020-05-08 22:00:00 18.1 0 Calma 6 Norte 0 -- -- 67
2020-05-08 21:00:00 19.6 8 Nordeste 21 Nordeste 0 -- -- 62
2020-05-08 20:00:00 22.1 16 Nordeste 29 Este 0 -- -- 53
2020-05-08 19:00:00 23.8 13 Este 27 Este 0 -- -- 44
2020-05-08 18:00:00 24 15 Este 28 Este 0 -- -- 41
2020-05-08 17:00:00 24.2 18 Este 31 Este 0 -- -- 43
2020-05-08 16:00:00 23.6 15 Este 26 Nordeste 0 -- -- 42
2020-05-08 15:00:00 23.5 11 Este 23 Nordeste 0 -- -- 44
2020-05-08 14:00:00 22.4 15 Este 23 Este 0 -- -- 45
2020-05-08 13:00:00 21.9 11 Nordeste 19 Este 0 -- -- 47
2020-05-08 12:00:00 19.9 7 Nordeste 15 Nordeste 0 -- -- 48
2020-05-08 11:00:00 18 6 Este 19 Este 0 -- -- 60
2020-05-08 10:00:00 16.7 12 Este 17 Este 0 -- -- 64
2020-05-08 09:00:00 15 4 Este 9 Este 0 -- -- 71
2020-05-08 08:00:00 12.2 3 Sudoeste 5 Oeste 0 -- -- 81
2020-05-08 07:00:00 10.9 2 Sur 11 Sudeste 0 -- -- 81
2020-05-08 06:00:00 11.2 6 Sudeste 12 Sur 0 -- -- 83
2020-05-08 05:00:00 11.8 5 Sur 9 Sur 0 -- -- 80
2020-05-08 04:00:00 13.1 6 Sur 10 Sur 0 -- -- 75
2020-05-08 03:00:00 13.2 2 Sur 9 Sudoeste 0 -- -- 70
2020-05-08 02:00:00 15 3 Este 17 Sudeste 0 -- -- 65
2020-05-08 01:00:00 16.8 10 Sudeste 25 Sur 0 -- -- 57
2020-05-08 00:00:00 16.6 8 Sudeste 16 Sur 0 -- -- 58
2020-05-07 23:00:00 18.2 10 Sur 16 Sur 0 -- -- 55
2020-05-07 22:00:00 19 7 Sudeste 17 Este 0 -- -- 57
2020-05-07 21:00:00 20.1 10 Sudeste 24 Este 0 -- -- 56
2020-05-07 20:00:00 21.4 14 Este 30 Este 0 -- -- 52
2020-05-07 19:00:00 23.1 23 Este 32 Este 0 -- -- 48
2020-05-07 18:00:00 24.1 16 Este 31 Este 0 -- -- 44
2020-05-07 17:00:00 24.9 19 Este 34 Este 0 -- -- 41
2020-05-07 16:00:00 25.2 20 Nordeste 33 Este 0 -- -- 42
2020-05-07 15:00:00 24.8 18 Este 34 Este 0 -- -- 46
2020-05-07 14:00:00 23.6 17 Este 32 Este 0 -- -- 50
2020-05-07 13:00:00 22.6 12 Este 22 Este 0 -- -- 50
2020-05-07 12:00:00 21.4 11 Este 18 Este 0 -- -- 53
2020-05-07 11:00:00 20.1 6 Nordeste 12 Nordeste 0 -- -- 54
2020-05-07 10:00:00 19.2 4 Este 9 Este 0 -- -- 56
2020-05-07 09:00:00 16.5 0 Calma 7 Sur 0 -- -- 64
2020-05-07 08:00:00 12.4 0 Calma 9 Sur 0 -- -- 81
2020-05-07 07:00:00 12.8 3 Sur 12 Sur 0 -- -- 80
2020-05-07 06:00:00 13.1 4 Sur 11 Sur 0 -- -- 78
2020-05-07 05:00:00 12.5 7 Sur 10 Sur 0 -- -- 75
2020-05-07 04:00:00 12.9 7 Sur 10 Sur 0 -- -- 66
2020-05-07 03:00:00 13.5 7 Sur 12 Sur 0 -- -- 58
2020-05-07 02:00:00 13.9 9 Sur 12 Sur 0 -- -- 57
2020-05-07 01:00:00 14.3 8 Sur 12 Sur 0 -- -- 57
2020-05-07 00:00:00 14.3 6 Sur 10 Sur 0 -- -- 60
2020-05-06 23:00:00 15.5 6 Sur 8 Sur 0 -- -- 58
2020-05-06 22:00:00 17.9 2 Sur 9 Este 0 -- -- 50
2020-05-06 21:00:00 20.3 5 Nordeste 21 Nordeste 0 -- -- 40
2020-05-06 20:00:00 22.7 13 Nordeste 23 Nordeste 0 -- -- 35
2020-05-06 19:00:00 24 11 Nordeste 20 Nordeste 0 -- -- 34
2020-05-06 18:00:00 24.7 12 Norte 21 Norte 0 -- -- 33
2020-05-06 17:00:00 25.2 7 Este 16 Nordeste 0 -- -- 33
2020-05-06 16:00:00 24.8 6 Norte 20 Nordeste 0 -- -- 34
2020-05-06 15:00:00 23.7 9 Nordeste 18 Norte 0 -- -- 35
2020-05-06 14:00:00 22.6 4 Norte 15 Norte 0 -- -- 39
2020-05-06 13:00:00 21.7 5 Noroeste 14 Noroeste 0 -- -- 38
2020-05-06 12:00:00 21.4 4 Noroeste 15 Noroeste 0 -- -- 39
2020-05-06 11:00:00 19.7 5 Noroeste 15 Noroeste 0 -- -- 43
2020-05-06 10:00:00 17.8 4 Noroeste 9 Norte 0 -- -- 49
2020-05-06 09:00:00 15.4 3 Sudoeste 9 Sudoeste 0 -- -- 56
2020-05-06 08:00:00 12.3 6 Sur 11 Sudoeste 0 -- -- 60
2020-05-06 07:00:00 10.8 6 Sur 10 Sur 0 -- -- 61
2020-05-06 06:00:00 10.4 5 Sur 9 Oeste 0 -- -- 63
2020-05-06 05:00:00 10.9 6 Sur 9 Sur 0 -- -- 61
2020-05-06 04:00:00 11.2 0 Calma 9 Norte 0 -- -- 59
2020-05-06 03:00:00 11.3 3 Sudoeste 5 Sur 0 -- -- 65
2020-05-06 02:00:00 12.3 3 Sur 6 Sur 0 -- -- 65
2020-05-06 01:00:00 13.6 5 Sur 7 Sudoeste 0 -- -- 74
2020-05-06 00:00:00 14.5 3 Sudoeste 12 Sur 0 -- -- 79
2020-05-05 23:00:00 15.9 6 Sur 10 Sudoeste 0 -- -- 78
2020-05-05 22:00:00 17.5 2 Sur 8 Sudeste 0 -- -- 68
2020-05-05 21:00:00 20.2 4 Este 12 Nordeste 0 -- -- 61
2020-05-05 20:00:00 22.1 3 Nordeste 15 Este 0 -- -- 55
2020-05-05 19:00:00 22.8 10 Nordeste 20 Sudeste 0 -- -- 53
2020-05-05 18:00:00 23.1 15 Este 22 Este 0 -- -- 55
2020-05-05 17:00:00 23.6 12 Este 20 Este 0 -- -- 51
2020-05-05 16:00:00 23 6 Este 13 Sudeste 0 -- -- 51
2020-05-05 15:00:00 22.3 8 Este 15 Este 0 -- -- 52
2020-05-05 14:00:00 21.2 6 Nordeste 14 Norte 0 -- -- 56
2020-05-05 13:00:00 20.1 9 Norte 14 Noroeste 0 -- -- 61
2020-05-05 12:00:00 20.5 9 Noroeste 18 Noroeste 0 -- -- 57
2020-05-05 11:00:00 19.8 10 Noroeste 22 Noroeste 0 -- -- 58
2020-05-05 10:00:00 18.5 13 Oeste 22 Oeste 0 -- -- 62
2020-05-05 09:00:00 17.3 11 Noroeste 18 Sudoeste 0 -- -- 67
2020-05-05 08:00:00 14.8 6 Sur 12 Sur 0 -- -- 77
2020-05-05 07:00:00 14.1 9 Sur 13 Sur 0 -- -- 77
2020-05-05 06:00:00 14.5 3 Sur 8 Sur 0 -- -- 73
2020-05-05 05:00:00 16 0 Calma 10 Sur 0 -- -- 68
2020-05-05 04:00:00 17.1 8 Sudoeste 19 Sudoeste 0 -- -- 63
2020-05-05 03:00:00 19.4 15 Sudoeste 28 Sudoeste 0 -- -- 54
2020-05-05 02:00:00 19.4 9 Sur 27 Sur 0 -- -- 52
2020-05-05 01:00:00 21 22 Sur 37 Sur 0 -- -- 48
2020-05-05 00:00:00 21.9 25 Sur 39 Sudoeste 0 -- -- 47